CDT,Max TemperatureF,Mean TemperatureF,Min TemperatureF,Max Dew PointF,MeanDew PointF,Min DewpointF,Max Humidity, Mean Humidity, Min Humidity, Max Sea Level PressureIn, Mean Sea Level PressureIn, Min Sea Level PressureIn, Max VisibilityMiles, Mean VisibilityMiles, Min VisibilityMiles, Max Wind SpeedMPH, Mean Wind SpeedMPH, Max Gust SpeedMPH,PrecipitationIn, CloudCover, Events, WindDirDegrees
2013-5-1,79,68,56,63,58,53,86,70,54,30.08,30.04,29.97,10,10,10,14,3,20,0.00,0,,123
2013-5-2,75,67,59,64,58,54,84,74,64,30.13,30.07,30.02,10,10,10,9,2,17,T,4,,119
2013-5-3,69,55,41,59,45,39,96,81,66,30.00,29.93,29.85,10,7,1,20,9,26,1.68,7,Rain,250
2013-5-4,58,46,34,47,38,34,100,76,51,29.98,29.95,29.91,10,8,0,10,2,17,0.02,5,Fog-Rain,197
2013-5-5,62,55,47,49,46,44,93,75,57,29.93,29.89,29.86,10,10,10,17,7,24,0.02,6,Rain,320
2013-5-6,62,57,52,56,53,48,96,86,75,29.95,29.87,29.84,10,10,9,16,6,21,0.01,8,,308
2013-5-7,74,62,50,57,54,48,100,75,49,30.02,29.98,29.94,10,8,1,13,3,17,0.00,5,,322
2013-5-8,80,65,49,59,55,48,96,69,42,30.08,30.04,30.00,10,10,7,10,3,13,0.00,1,,252
2013-5-9,81,68,54,62,58,54,100,76,51,30.08,30.02,29.97,10,10,8,18,6,25,T,2,,203
2013-5-10,74,69,63,65,63,61,100,84,68,29.96,29.92,29.87,10,8,1,23,7,28,1.51,7,Rain-Thunderstorm,199
2013-5-11,71,64,57,63,56,49,93,70,47,30.09,29.99,29.94,10,9,6,17,8,22,0.04,6,Rain-Thunderstorm,336
2013-5-12,65,53,41,43,37,30,89,60,30,30.23,30.18,30.12,10,10,10,17,7,22,0.00,0,,336
2013-5-13,73,56,38,52,42,37,93,61,29,30.29,30.21,30.15,10,10,10,12,3,15,0.00,1,,226
2013-5-14,86,70,54,60,54,49,83,62,40,30.14,30.07,30.01,10,10,10,20,10,26,0.00,0,,208
2013-5-15,85,74,62,57,53,45,72,49,26,30.11,30.03,29.96,10,10,10,21,10,26,0.00,0,,221
2013-5-16,81,71,61,63,59,57,84,65,45,30.02,29.96,29.93,10,10,10,18,4,24,T,2,Rain,188
2013-5-17,75,69,63,68,65,59,100,85,70,29.97,29.95,29.90,10,6,0,10,3,15,0.84,7,Fog-Rain-Thunderstorm,156
2013-5-18,84,73,62,72,68,63,100,82,63,30.01,29.97,29.92,10,6,0,8,2,12,0.00,5,Fog,174
2013-5-19,88,80,72,71,69,66,93,72,50,29.99,29.93,29.88,10,9,5,15,9,21,0.00,1,,191
2013-5-20,88,80,71,72,69,67,90,73,55,29.99,29.93,29.85,10,10,9,18,9,24,0.00,3,,195
2013-5-21,78,71,64,70,65,63,93,79,64,30.03,29.92,29.82,10,7,0,29,6,41,2.70,6,Fog-Rain-Thunderstorm,182
2013-5-22,80,72,63,66,63,60,100,77,54,29.91,29.86,29.80,10,10,5,15,8,20,0.59,5,Rain-Thunderstorm,228
2013-5-23,80,69,58,61,59,56,93,73,52,30.12,30.01,29.90,10,10,10,18,7,23,0.00,1,,315
2013-5-24,73,62,50,55,50,49,89,67,44,30.32,30.25,30.15,10,10,10,15,7,21,0.00,1,,34
2013-5-25,77,62,47,54,50,46,96,66,36,30.32,30.25,30.16,10,10,7,9,2,16,0.00,0,,133
2013-5-26,84,68,51,60,55,50,96,65,34,30.22,30.16,30.09,10,10,10,9,2,13,0.00,0,,183
2013-5-27,86,72,58,65,60,55,93,65,37,30.12,30.05,29.97,10,10,10,18,7,22,0.00,2,,187
2013-5-28,87,77,66,67,61,56,79,58,37,30.06,30.00,29.97,10,10,10,18,8,23,0.00,0,,182
2013-5-29,86,74,61,68,63,56,84,64,44,30.07,30.01,29.95,10,10,10,16,6,22,0.00,1,,173
2013-5-30,86,77,68,72,68,64,93,76,59,30.04,30.00,29.94,10,9,1,38,9,52,0.11,3,Rain-Thunderstorm,174
2013-5-31,84,75,65,73,69,64,93,79,65,30.05,29.99,29.88,10,7,0,17,7,23,1.07,7,Fog-Rain-Thunderstorm,185